createdAt,value
2017-11-23T00:02:29.584Z,13.23
2017-11-23T00:07:32.214Z,16.00
2017-11-23T00:12:35.630Z,18.13
2017-11-23T00:17:39.760Z,13.30
2017-11-23T00:22:43.324Z,17.10
2017-11-23T00:27:45.930Z,13.83
2017-11-23T00:32:48.810Z,14.73
2017-11-23T00:37:52.232Z,13.67
2017-11-23T00:42:55.766Z,14.77
2017-11-23T00:47:58.350Z,14.03
2017-11-23T00:53:02.405Z,13.50
2017-11-23T00:58:04.980Z,13.30
2017-11-23T01:03:09.010Z,15.50
2017-11-23T01:08:12.397Z,13.50
2017-11-23T01:13:15.855Z,12.87
2017-11-23T01:18:18.459Z,14.00
2017-11-23T01:23:21.109Z,14.37
2017-11-23T01:28:25.232Z,15.37
2017-11-23T01:33:28.602Z,14.53
2017-11-23T01:38:31.869Z,13.07
2017-11-23T01:43:36.240Z,13.03
2017-11-23T01:48:39.374Z,16.47
2017-11-23T01:53:42.102Z,12.70
2017-11-23T01:58:44.846Z,13.87
2017-11-23T02:03:49.582Z,13.23
2017-11-23T02:08:52.264Z,14.73
2017-11-23T02:13:54.957Z,11.37
2017-11-23T02:18:57.626Z,15.07
2017-11-23T02:24:01.240Z,14.13
2017-11-23T02:29:03.924Z,16.23
2017-11-23T02:34:08.288Z,14.33
2017-11-23T02:39:10.903Z,14.07
2017-11-23T02:44:13.661Z,14.63
2017-11-23T02:49:17.042Z,13.03
2017-11-23T02:54:19.673Z,15.27
2017-11-23T02:59:23.082Z,13.10
2017-11-23T03:04:26.732Z,13.50
2017-11-23T03:09:29.331Z,13.43
2017-11-23T03:14:32.105Z,11.13
2017-11-23T03:19:34.718Z,12.07
2017-11-23T03:24:38.632Z,13.93
2017-11-23T03:29:41.230Z,12.63
2017-11-23T03:34:45.569Z,12.20
2017-11-23T03:39:48.207Z,12.30
2017-11-23T03:44:51.688Z,13.37
2017-11-23T03:49:54.317Z,13.10
2017-11-23T03:54:57.077Z,10.53
2017-11-23T03:59:59.691Z,10.00
2017-11-23T04:05:03.126Z,9.53
2017-11-23T04:10:06.522Z,11.27
2017-11-23T04:15:09.276Z,10.87
2017-11-23T04:20:12.049Z,10.27
2017-11-23T04:25:15.142Z,11.83
2017-11-23T04:30:18.550Z,9.93
2017-11-23T04:35:21.303Z,10.57
2017-11-23T04:40:23.919Z,12.20
2017-11-23T04:45:26.800Z,10.90
2017-11-23T04:50:29.423Z,10.80
2017-11-23T04:55:32.762Z,9.97
2017-11-23T05:00:35.371Z,9.10
2017-11-23T05:05:38.997Z,9.37
2017-11-23T05:10:42.433Z,11.10
2017-11-23T05:15:46.012Z,12.87
2017-11-23T05:20:48.672Z,9.73
2017-11-23T05:25:51.340Z,12.83
2017-11-23T05:30:54.728Z,10.60
2017-11-23T05:35:58.292Z,11.57
2017-11-23T05:41:00.872Z,11.37
2017-11-23T05:46:04.298Z,12.53
2017-11-23T05:51:07.705Z,10.80
2017-11-23T05:56:11.548Z,10.80
2017-11-23T06:01:14.170Z,11.13
2017-11-23T06:06:17.224Z,10.90
2017-11-23T06:11:19.804Z,8.00
2017-11-23T06:16:22.915Z,9.60
2017-11-23T06:21:25.543Z,8.50
2017-11-23T06:26:29.367Z,9.43
2017-11-23T06:31:31.984Z,13.17
2017-11-23T06:36:36.006Z,8.30
2017-11-23T06:41:39.407Z,12.00
2017-11-23T06:46:42.962Z,11.30
2017-11-23T06:51:45.589Z,12.30
2017-11-23T06:56:48.417Z,7.73
2017-11-23T07:01:51.033Z,10.30
2017-11-23T07:06:53.808Z,10.77
2017-11-23T07:11:56.470Z,11.43
2017-11-23T07:16:59.743Z,11.77
2017-11-23T07:22:02.363Z,7.50
2017-11-23T07:27:05.748Z,11.33
2017-11-23T07:32:08.484Z,11.00
2017-11-23T07:37:12.425Z,10.00
2017-11-23T07:42:15.034Z,10.43
2017-11-23T07:47:18.221Z,10.40
2017-11-23T07:52:21.645Z,9.07
2017-11-23T07:57:25.345Z,10.30
2017-11-23T08:02:27.997Z,10.87
2017-11-23T08:07:30.662Z,8.53
2017-11-23T08:12:34.058Z,7.87
2017-11-23T08:17:38.169Z,8.10
2017-11-23T08:22:40.789Z,7.10
2017-11-23T08:27:44.708Z,7.97
2017-11-23T08:32:47.310Z,7.17
2017-11-23T08:37:50.287Z,6.53
2017-11-23T08:42:52.913Z,7.50
2017-11-23T08:47:56.246Z,9.93
2017-11-23T08:52:59.625Z,9.30
2017-11-23T08:58:04.627Z,9.13
2017-11-23T09:03:09.188Z,7.50
2017-11-23T09:08:12.437Z,6.27
2017-11-23T09:13:15.057Z,16.03
2017-11-23T09:18:18.167Z,8.17
2017-11-23T09:23:20.799Z,6.03
2017-11-23T09:28:24.397Z,4.93
2017-11-23T09:33:27.813Z,6.83
2017-11-23T09:38:30.665Z,5.63
2017-11-23T09:43:33.284Z,4.87
2017-11-23T09:48:35.946Z,5.23
2017-11-23T09:53:38.569Z,5.47
2017-11-23T09:58:41.733Z,4.40
2017-11-23T10:03:45.115Z,4.37
2017-11-23T10:08:48.097Z,6.57
2017-11-23T10:13:50.701Z,6.57
2017-11-23T10:18:53.550Z,4.40
2017-11-23T10:23:56.936Z,6.27
2017-11-23T10:29:00.506Z,4.77
2017-11-23T10:34:03.131Z,5.63
2017-11-23T10:39:06.195Z,6.00
2017-11-23T10:44:09.585Z,6.30
2017-11-23T10:49:12.779Z,6.40
2017-11-23T10:54:15.414Z,3.80
2017-11-23T10:59:18.885Z,5.13
2017-11-23T11:04:21.476Z,3.63
2017-11-23T11:09:24.280Z,7.00
2017-11-23T11:14:26.892Z,6.03
2017-11-23T11:19:29.747Z,4.90
2017-11-23T11:24:33.148Z,5.33
2017-11-23T11:29:36.063Z,5.57
2017-11-23T11:34:39.460Z,7.10
2017-11-23T11:39:43.618Z,4.40
2017-11-23T11:44:46.999Z,5.03
2017-11-23T11:49:50.367Z,5.23
2017-11-23T11:54:53.785Z,5.93
2017-11-23T11:59:57.317Z,3.87
2017-11-23T12:05:00.006Z,4.53
2017-11-23T12:10:04.472Z,4.30
2017-11-23T12:20:53.724Z,7.77
2017-11-23T12:25:59.179Z,7.27
2017-11-23T12:31:01.797Z,16.43
2017-11-23T12:36:04.880Z,7.00
2017-11-23T12:41:07.494Z,7.83
2017-11-23T12:46:10.549Z,5.37
2017-11-23T12:51:13.193Z,5.27
2017-11-23T12:56:16.353Z,6.67
2017-11-23T13:01:19.731Z,5.67
2017-11-23T13:06:22.386Z,5.63
2017-11-23T13:11:25.003Z,7.17
2017-11-23T13:16:28.473Z,5.93
2017-11-23T13:21:31.128Z,8.03
2017-11-23T13:26:34.091Z,9.90
2017-11-23T13:31:37.483Z,6.00
2017-11-23T13:36:41.040Z,8.43
2017-11-23T13:41:44.444Z,7.47
2017-11-23T13:46:48.742Z,9.60
2017-11-23T13:51:51.375Z,8.30
2017-11-23T13:56:54.637Z,9.30
2017-11-23T14:01:57.265Z,7.20
2017-11-23T14:07:00.600Z,4.90
2017-11-23T14:12:03.220Z,6.67
2017-11-23T14:17:07.037Z,8.03
2017-11-23T14:22:10.422Z,5.13
2017-11-23T14:27:13.295Z,7.23
2017-11-23T14:32:15.908Z,7.47
2017-11-23T14:37:18.783Z,8.60
2017-11-23T14:42:36.159Z,6.80
2017-11-23T14:47:39.661Z,7.83
2017-11-23T14:52:42.272Z,10.83
2017-11-23T14:57:45.120Z,5.60
2017-11-23T15:02:48.511Z,6.90
2017-11-23T15:07:51.984Z,8.10
2017-11-23T15:12:54.611Z,10.10
2017-11-23T15:17:57.581Z,9.23
2017-11-23T15:23:00.216Z,7.47
2017-11-23T15:28:03.030Z,11.03
2017-11-23T15:33:05.656Z,10.00
2017-11-23T15:38:09.263Z,8.40
2017-11-23T15:43:11.880Z,9.13
2017-11-23T15:48:15.421Z,7.10
2017-11-23T15:53:18.051Z,8.37
2017-11-23T15:58:21.426Z,7.47
2017-11-23T16:03:24.768Z,11.23
2017-11-23T16:08:28.430Z,11.50
2017-11-23T16:13:31.305Z,10.17
2017-11-23T16:18:34.028Z,9.90
2017-11-23T16:23:37.603Z,8.13
2017-11-23T16:28:41.223Z,8.70
2017-11-23T16:33:43.908Z,8.40
2017-11-23T16:39:03.217Z,11.90
2017-11-23T16:44:22.564Z,9.33
2017-11-23T16:49:31.957Z,9.70
2017-11-23T16:54:40.246Z,8.60
2017-11-23T16:59:59.171Z,9.93
2017-11-23T17:05:07.661Z,9.37
2017-11-23T17:10:16.829Z,9.30
2017-11-23T17:15:25.360Z,10.30
2017-11-23T17:20:30.452Z,8.17
2017-11-23T17:25:33.054Z,9.20
2017-11-23T17:30:36.418Z,9.60
2017-11-23T17:35:39.303Z,9.57
2017-11-23T17:40:42.719Z,8.33
2017-11-23T17:45:45.433Z,8.90
2017-11-23T17:50:48.790Z,9.10
2017-11-23T17:55:51.431Z,7.50
2017-11-23T18:00:54.801Z,8.20
2017-11-23T18:05:58.280Z,8.73
2017-11-23T18:11:01.040Z,8.83
2017-11-23T18:16:03.741Z,9.03
2017-11-23T18:21:06.687Z,9.07
2017-11-23T18:26:09.372Z,7.47
2017-11-23T18:31:13.465Z,6.73
2017-11-23T18:36:16.853Z,6.87
2017-11-23T18:41:20.463Z,10.03
2017-11-23T18:46:23.145Z,8.10
2017-11-23T18:51:26.444Z,6.60
2017-11-23T18:56:29.059Z,9.23
2017-11-23T19:01:32.600Z,10.17
2017-11-23T19:06:35.356Z,7.10
2017-11-23T19:11:38.873Z,7.23
2017-11-23T19:16:41.676Z,6.87
2017-11-23T19:21:45.201Z,7.13
2017-11-23T19:26:47.839Z,9.13
2017-11-23T19:31:51.357Z,5.93
2017-11-23T19:36:53.960Z,10.63
2017-11-23T19:41:56.711Z,7.33
2017-11-23T19:46:59.385Z,6.67
2017-11-23T19:52:02.997Z,6.70
2017-11-23T19:57:05.669Z,8.50
2017-11-23T20:02:09.151Z,6.90
2017-11-23T20:07:11.875Z,9.20
2017-11-23T20:12:14.868Z,6.07
2017-11-23T20:17:17.486Z,7.77
2017-11-23T20:22:20.911Z,8.80
2017-11-23T20:27:23.811Z,8.63
2017-11-23T20:32:27.178Z,7.40
2017-11-23T20:37:30.644Z,7.20
2017-11-23T20:42:34.343Z,8.50
2017-11-23T20:47:37.252Z,8.23
2017-11-23T20:52:40.248Z,6.83
2017-11-23T20:57:42.896Z,6.20
2017-11-23T21:02:46.060Z,7.77
2017-11-23T21:07:48.732Z,5.60
2017-11-23T21:12:52.236Z,8.73
2017-11-23T21:17:54.914Z,6.70
2017-11-23T21:22:58.403Z,8.77
2017-11-23T21:28:01.341Z,6.83
2017-11-23T21:33:04.214Z,8.13
2017-11-23T21:38:06.822Z,7.10
2017-11-23T21:43:10.020Z,5.93
2017-11-23T21:48:12.777Z,5.53
2017-11-23T21:53:16.374Z,7.37
2017-11-23T21:58:18.987Z,8.07
2017-11-23T22:03:22.248Z,7.47
2017-11-23T22:08:25.113Z,7.60
2017-11-23T22:13:28.129Z,8.10
2017-11-23T22:18:30.746Z,6.73
2017-11-23T22:23:35.180Z,5.73
2017-11-23T22:28:37.892Z,5.80
2017-11-23T22:33:40.845Z,12.03
2017-11-23T22:38:43.561Z,8.13
2017-11-23T22:43:46.881Z,5.67
2017-11-23T22:48:49.571Z,6.20
2017-11-23T22:53:52.711Z,4.50
2017-11-23T22:58:55.376Z,5.60
2017-11-23T23:03:58.516Z,9.10
2017-11-23T23:09:01.476Z,4.57
2017-11-23T23:14:04.816Z,6.87
2017-11-23T23:19:07.417Z,5.40
2017-11-23T23:24:10.988Z,6.83
2017-11-23T23:29:13.562Z,8.40
2017-11-23T23:34:16.867Z,7.50
2017-11-23T23:39:19.499Z,6.17
2017-11-23T23:44:23.074Z,5.97
2017-11-23T23:49:25.822Z,7.73
2017-11-23T23:54:29.047Z,6.57
2017-11-23T23:59:31.876Z,8.13
